createdAt,value
2018-07-27T00:00:55.061Z,43.80
2018-07-27T00:03:24.221Z,43.10
2018-07-27T00:05:53.371Z,43.50
2018-07-27T00:08:22.528Z,43.80
2018-07-27T00:10:51.722Z,44.60
2018-07-27T00:13:20.894Z,44.80
2018-07-27T00:15:50.080Z,45.90
2018-07-27T00:18:19.249Z,46.60
2018-07-27T00:20:48.445Z,48.00
2018-07-27T00:23:17.616Z,58.70
2018-07-27T00:25:46.781Z,50.30
2018-07-27T00:28:15.936Z,50.00
2018-07-27T00:30:45.113Z,50.90
2018-07-27T00:33:14.277Z,52.50
2018-07-27T00:35:43.439Z,51.50
2018-07-27T00:40:41.632Z,53.60
2018-07-27T00:43:10.804Z,55.40
2018-07-27T00:45:39.978Z,56.70
2018-07-27T00:48:09.148Z,56.50
2018-07-27T00:50:38.315Z,58.20
2018-07-27T00:53:07.497Z,59.10
2018-07-27T00:55:36.656Z,60.30
2018-07-27T00:58:05.841Z,62.00
2018-07-27T01:00:35.022Z,62.60
2018-07-27T01:03:04.535Z,63.70
2018-07-27T01:05:33.748Z,65.10
2018-07-27T01:08:02.949Z,68.10
2018-07-27T01:10:32.154Z,69.60
2018-07-27T01:13:01.515Z,72.80
2018-07-27T01:15:30.807Z,73.00
2018-07-27T01:18:00.017Z,76.10
2018-07-27T01:20:29.238Z,77.40
2018-07-27T01:22:58.463Z,80.20
2018-07-27T01:25:27.704Z,81.50
2018-07-27T01:27:56.905Z,85.20
2018-07-27T01:30:26.121Z,91.00
2018-07-27T01:32:55.335Z,94.40
2018-07-27T01:35:24.544Z,96.80
2018-07-27T01:37:53.759Z,97.40
2018-07-27T01:40:22.953Z,97.60
2018-07-27T01:42:52.155Z,97.80
2018-07-27T01:45:21.369Z,97.80
2018-07-27T01:47:50.564Z,98.00
2018-07-27T01:52:48.755Z,98.40
2018-07-27T01:57:46.987Z,99.90
2018-07-27T02:00:16.188Z,99.90
2018-07-27T02:02:45.414Z,99.90
2018-07-27T02:05:14.618Z,99.90
2018-07-27T02:07:43.854Z,99.90
2018-07-27T02:10:13.070Z,99.90
2018-07-27T02:12:42.282Z,99.90
2018-07-27T02:15:11.656Z,99.90
2018-07-27T02:17:40.944Z,99.90
2018-07-27T02:22:39.081Z,99.90
2018-07-27T02:25:08.283Z,99.90
2018-07-27T02:27:37.436Z,99.90
2018-07-27T02:32:35.760Z,99.90
2018-07-27T02:35:05.549Z,99.90
2018-07-27T02:37:34.839Z,99.90
2018-07-27T02:40:04.098Z,99.90
2018-07-27T02:42:33.215Z,99.90
2018-07-27T02:45:02.384Z,99.90
2018-07-27T02:47:31.544Z,1.00
2018-07-27T02:50:00.708Z,1.00
2018-07-27T02:54:58.792Z,1.00
2018-07-27T02:57:27.965Z,1.00
2018-07-27T02:59:57.300Z,1.00
2018-07-27T03:04:55.409Z,99.90
2018-07-27T03:07:24.590Z,99.90
2018-07-27T03:09:53.915Z,99.90
2018-07-27T03:14:51.879Z,1.00
2018-07-27T03:17:21.045Z,1.00
2018-07-27T03:19:50.215Z,99.90
2018-07-27T03:22:19.391Z,69.00
2018-07-27T03:24:48.557Z,99.90
2018-07-27T03:27:17.740Z,99.90
2018-07-27T03:29:46.906Z,99.90
2018-07-27T03:32:16.090Z,99.90
2018-07-27T03:34:45.236Z,99.90
2018-07-27T03:37:14.404Z,99.90
2018-07-27T03:39:43.570Z,99.90
2018-07-27T03:42:12.779Z,99.90
2018-07-27T03:44:41.904Z,1.00
2018-07-27T03:47:11.101Z,1.00
2018-07-27T03:49:40.256Z,1.00
2018-07-27T03:52:09.424Z,1.00
2018-07-27T03:57:07.716Z,1.00
2018-07-27T03:59:36.893Z,60.80
2018-07-27T04:02:06.333Z,99.90
2018-07-27T04:04:35.456Z,99.90
2018-07-27T04:07:04.626Z,99.90
2018-07-27T04:09:33.817Z,99.90
2018-07-27T04:12:02.981Z,99.90
2018-07-27T04:14:32.159Z,99.90
2018-07-27T04:17:01.309Z,99.90
2018-07-27T04:19:30.483Z,99.90
2018-07-27T04:21:59.637Z,99.90
2018-07-27T04:24:28.814Z,99.90
2018-07-27T04:26:57.988Z,99.90
2018-07-27T04:29:27.206Z,99.90
2018-07-27T04:31:56.380Z,99.90
2018-07-27T04:36:54.539Z,99.90
2018-07-27T04:39:23.716Z,99.90
2018-07-27T04:41:52.881Z,99.90
2018-07-27T04:44:22.040Z,99.90
2018-07-27T04:46:51.257Z,99.90
2018-07-27T04:51:49.361Z,99.90
2018-07-27T04:54:18.533Z,99.90
2018-07-27T04:56:47.728Z,99.90
2018-07-27T04:59:16.866Z,99.90
2018-07-27T05:01:46.032Z,99.90
2018-07-27T05:04:15.205Z,99.90
2018-07-27T05:06:44.369Z,99.90
2018-07-27T05:09:21.000Z,99.90
2018-07-27T05:14:19.130Z,99.90
2018-07-27T05:16:48.315Z,99.90
2018-07-27T05:19:17.495Z,99.90
2018-07-27T05:21:46.688Z,99.90
2018-07-27T05:24:15.874Z,99.90
2018-07-27T05:29:14.157Z,99.90
2018-07-27T05:31:43.344Z,99.90
2018-07-27T05:34:12.540Z,99.90
2018-07-27T05:36:41.741Z,99.90
2018-07-27T05:39:12.197Z,99.90
2018-07-27T05:41:41.409Z,99.90
2018-07-27T05:44:10.581Z,99.90
2018-07-27T05:46:39.744Z,99.90
2018-07-27T05:49:08.928Z,99.90
2018-07-27T05:51:38.090Z,99.90
2018-07-27T05:54:07.290Z,99.90
2018-07-27T05:56:36.458Z,99.90
2018-07-27T05:59:06.304Z,99.90
2018-07-27T06:01:35.468Z,99.90
2018-07-27T06:04:04.657Z,99.90
2018-07-27T06:06:33.817Z,99.90
2018-07-27T06:09:03.001Z,99.90
2018-07-27T06:11:32.177Z,99.90
2018-07-27T06:14:01.353Z,99.90
2018-07-27T06:16:30.518Z,99.90
2018-07-27T06:18:59.693Z,99.90
2018-07-27T06:21:28.861Z,99.90
2018-07-27T06:23:58.131Z,99.90
2018-07-27T06:28:56.558Z,99.90
2018-07-27T06:31:25.912Z,99.90
2018-07-27T06:33:55.111Z,99.90
2018-07-27T06:36:24.287Z,99.90
2018-07-27T06:38:53.449Z,99.90
2018-07-27T06:41:22.627Z,99.90
2018-07-27T06:43:51.796Z,99.90
2018-07-27T06:46:20.956Z,99.90
2018-07-27T06:48:50.142Z,99.90
2018-07-27T06:51:19.301Z,99.90
2018-07-27T06:53:48.478Z,99.90
2018-07-27T06:56:17.646Z,99.90
2018-07-27T06:58:46.825Z,99.90
2018-07-27T07:01:15.993Z,99.90
2018-07-27T07:03:45.169Z,99.90
2018-07-27T07:06:14.325Z,99.90
2018-07-27T07:08:43.924Z,99.90
2018-07-27T07:11:13.080Z,99.90
2018-07-27T07:13:42.260Z,99.90
2018-07-27T07:16:11.440Z,99.90
2018-07-27T07:18:40.617Z,99.90
2018-07-27T07:21:09.788Z,99.90
2018-07-27T07:23:38.959Z,99.90
2018-07-27T07:26:08.351Z,99.90
2018-07-27T07:28:37.501Z,99.90
2018-07-27T07:31:06.688Z,99.90
2018-07-27T07:33:35.881Z,99.90
2018-07-27T07:36:05.061Z,99.90
2018-07-27T07:38:34.233Z,99.90
2018-07-27T07:41:03.404Z,99.90
2018-07-27T07:43:32.597Z,99.90
2018-07-27T07:46:01.768Z,99.90
2018-07-27T07:48:30.937Z,99.90
2018-07-27T07:51:00.106Z,99.90
2018-07-27T07:53:29.308Z,99.90
2018-07-27T07:55:58.560Z,99.90
2018-07-27T08:00:57.369Z,99.90
2018-07-27T08:05:55.929Z,99.90
2018-07-27T08:08:25.122Z,99.90
2018-07-27T08:10:54.314Z,99.80
2018-07-27T08:13:23.493Z,99.90
2018-07-27T08:15:52.660Z,99.80
2018-07-27T08:18:21.829Z,99.90
2018-07-27T08:20:51.022Z,99.90
2018-07-27T08:23:20.192Z,99.70
2018-07-27T08:26:55.705Z,99.90
2018-07-27T08:34:28.519Z,99.00
2018-07-27T08:36:57.788Z,98.80
2018-07-27T08:39:28.047Z,99.00
2018-07-27T08:44:27.362Z,99.10
2018-07-27T08:46:56.537Z,99.20
2018-07-27T08:49:25.725Z,98.90
2018-07-27T08:51:54.947Z,98.50
2018-07-27T08:54:24.120Z,98.20
2018-07-27T08:56:53.289Z,97.60
2018-07-27T08:59:22.462Z,97.40
2018-07-27T10:58:30.848Z,86.40
2018-07-27T11:03:28.968Z,84.70
2018-07-27T11:05:58.161Z,84.60
2018-07-27T11:08:27.325Z,84.40
2018-07-27T11:10:56.489Z,84.30
2018-07-27T11:13:25.645Z,82.60
2018-07-27T11:15:54.812Z,82.10
2018-07-27T11:18:23.965Z,82.20
2018-07-27T11:20:53.137Z,80.20
2018-07-27T11:23:22.291Z,78.30
2018-07-27T11:25:51.468Z,78.50
2018-07-27T11:28:20.632Z,77.40
2018-07-27T11:30:49.800Z,77.30
2018-07-27T11:33:18.977Z,75.00
2018-07-27T11:35:48.149Z,75.30
2018-07-27T11:38:17.328Z,76.00
2018-07-27T11:40:46.500Z,74.50
2018-07-27T11:43:15.668Z,74.00
2018-07-27T11:45:44.842Z,75.10
2018-07-27T11:48:14.004Z,73.30
2018-07-27T11:50:43.173Z,72.30
2018-07-27T11:53:12.420Z,71.80
2018-07-27T11:55:41.584Z,71.20
2018-07-27T11:58:10.757Z,71.20
2018-07-27T12:00:39.920Z,68.90
2018-07-27T12:03:09.081Z,68.50
2018-07-27T12:05:38.645Z,68.10
2018-07-27T12:08:07.927Z,69.00
2018-07-27T12:10:37.175Z,69.20
2018-07-27T12:15:42.169Z,67.90
2018-07-27T12:18:11.469Z,68.50
2018-07-27T12:20:40.853Z,67.90
2018-07-27T12:23:10.116Z,66.20
2018-07-27T12:28:08.338Z,65.70
2018-07-27T12:30:37.508Z,63.60
2018-07-27T12:33:07.088Z,62.90
2018-07-27T12:35:36.264Z,65.50
2018-07-27T12:38:05.491Z,64.80
2018-07-27T12:40:34.668Z,63.20
2018-07-27T12:43:03.865Z,66.10
2018-07-27T12:45:33.060Z,64.40
2018-07-27T12:48:02.229Z,63.10
2018-07-27T12:50:31.450Z,62.10
2018-07-27T12:53:00.626Z,61.80
2018-07-27T12:55:29.797Z,61.80
2018-07-27T13:00:27.900Z,60.50
2018-07-27T13:02:57.067Z,59.00
2018-07-27T13:05:26.274Z,59.20
2018-07-27T13:07:55.432Z,59.20
2018-07-27T13:10:24.664Z,55.10
2018-07-27T13:12:53.822Z,58.90
2018-07-27T13:15:22.988Z,58.50
2018-07-27T13:17:52.157Z,56.90
2018-07-27T13:20:21.327Z,49.50
2018-07-27T13:22:50.492Z,1.00
2018-07-27T13:25:19.659Z,1.00
2018-07-27T13:27:48.820Z,1.00
2018-07-27T13:30:17.976Z,1.00
2018-07-27T13:32:47.153Z,1.00
2018-07-27T13:35:16.298Z,1.00
2018-07-27T13:37:45.457Z,1.00
2018-07-27T13:40:14.609Z,1.00
2018-07-27T13:42:43.810Z,1.00
2018-07-27T13:45:12.964Z,1.00
2018-07-27T13:47:42.132Z,1.00
2018-07-27T13:52:40.213Z,1.00
2018-07-27T13:55:09.367Z,1.00
2018-07-27T13:57:38.546Z,1.00
2018-07-27T14:00:07.683Z,1.00
2018-07-27T14:02:36.851Z,1.00
2018-07-27T14:05:06.707Z,1.00
2018-07-27T14:10:05.107Z,1.00
2018-07-27T14:15:03.205Z,1.00
2018-07-27T14:17:32.376Z,1.00
2018-07-27T14:20:01.532Z,1.00
2018-07-27T14:22:30.701Z,1.00
2018-07-27T14:24:59.859Z,1.00
2018-07-27T14:27:29.017Z,1.00
2018-07-27T14:29:58.170Z,1.00
2018-07-27T14:32:27.346Z,1.00
2018-07-27T14:34:56.513Z,1.00
2018-07-27T14:37:25.721Z,1.00
2018-07-27T14:39:54.883Z,1.00
2018-07-27T14:42:24.130Z,1.00
2018-07-27T14:44:54.136Z,1.00
2018-07-27T14:47:23.334Z,1.00
2018-07-27T14:49:52.509Z,1.00
2018-07-27T14:52:21.738Z,1.00
2018-07-27T14:54:50.835Z,1.00
2018-07-27T14:57:20.005Z,1.00
2018-07-27T14:59:49.161Z,1.00
2018-07-27T15:04:47.293Z,1.00
2018-07-27T15:07:16.436Z,1.00
2018-07-27T15:12:14.578Z,1.00
2018-07-27T15:14:43.745Z,1.00
2018-07-27T15:17:12.909Z,1.00
2018-07-27T15:19:42.075Z,1.00
2018-07-27T15:22:11.256Z,1.00
2018-07-27T15:24:40.422Z,1.00
2018-07-27T15:27:09.579Z,1.00
2018-07-27T15:29:40.489Z,1.00
2018-07-27T15:32:09.868Z,1.00
2018-07-27T15:34:39.109Z,1.00
2018-07-27T15:37:08.366Z,1.00
2018-07-27T15:39:37.590Z,1.00
2018-07-27T15:42:06.857Z,1.00
2018-07-27T15:44:36.101Z,1.00
2018-07-27T15:47:05.364Z,1.00
2018-07-27T15:49:34.602Z,1.00
2018-07-27T15:52:03.830Z,1.00
2018-07-27T15:54:33.085Z,1.00
2018-07-27T15:57:02.325Z,1.00
2018-07-27T15:59:31.754Z,1.00
2018-07-27T16:02:01.147Z,1.00
2018-07-27T16:06:59.587Z,1.00
2018-07-27T16:09:28.891Z,1.00
2018-07-27T16:11:58.230Z,1.00
2018-07-27T16:14:27.537Z,1.00
2018-07-27T16:19:28.588Z,1.00
2018-07-27T16:21:58.807Z,1.00
2018-07-27T16:24:28.219Z,1.00
2018-07-27T16:26:57.556Z,1.00
2018-07-27T16:29:27.469Z,1.00
2018-07-27T16:31:57.039Z,1.00
2018-07-27T16:34:26.287Z,1.00
2018-07-27T16:36:55.471Z,1.00
2018-07-27T16:39:24.629Z,1.00
2018-07-27T16:41:53.800Z,1.00
2018-07-27T16:44:22.969Z,1.00
2018-07-27T16:46:52.135Z,1.00
2018-07-27T16:51:50.257Z,1.00
2018-07-27T16:54:19.424Z,1.00
2018-07-27T16:56:48.617Z,1.00
2018-07-27T16:59:17.785Z,1.00
2018-07-27T17:01:46.948Z,1.00
2018-07-27T17:04:16.119Z,1.00
2018-07-27T17:06:45.293Z,1.00
2018-07-27T17:11:43.499Z,1.00
2018-07-27T17:14:12.725Z,1.00
2018-07-27T17:16:41.903Z,1.00
2018-07-27T17:19:11.084Z,1.00
2018-07-27T17:21:40.268Z,1.00
2018-07-27T17:24:09.424Z,1.00
2018-07-27T17:26:38.584Z,1.00
2018-07-27T17:29:07.777Z,1.00
2018-07-27T17:31:36.943Z,1.00
2018-07-27T17:34:06.637Z,1.00
2018-07-27T17:36:35.818Z,1.00
2018-07-27T17:39:08.472Z,1.00
2018-07-27T17:41:37.662Z,1.00
2018-07-27T17:44:06.940Z,1.00
2018-07-27T17:46:36.104Z,1.00
2018-07-27T17:49:05.280Z,1.00
2018-07-27T17:51:34.456Z,1.00
2018-07-27T17:54:03.620Z,1.00
2018-07-27T17:56:32.841Z,1.00
2018-07-27T17:59:02.021Z,1.00
2018-07-27T18:01:31.193Z,1.00
2018-07-27T18:04:00.357Z,1.00
2018-07-27T18:06:29.539Z,1.00
2018-07-27T18:08:58.876Z,1.00
2018-07-27T18:11:28.138Z,1.00
2018-07-27T18:13:57.317Z,1.00
2018-07-27T18:16:26.558Z,1.00
2018-07-27T18:18:55.783Z,1.00
2018-07-27T18:21:24.971Z,1.00
2018-07-27T18:23:54.127Z,1.00
2018-07-27T18:26:23.322Z,1.00
2018-07-27T18:28:52.487Z,1.00
2018-07-27T18:31:21.728Z,1.00
2018-07-27T18:33:50.911Z,1.00
2018-07-27T18:38:49.028Z,1.00
2018-07-27T18:41:18.246Z,1.00
2018-07-27T18:43:47.419Z,1.00
2018-07-27T18:46:16.644Z,1.00
2018-07-27T18:48:45.765Z,1.00
2018-07-27T18:53:43.874Z,1.00
2018-07-27T18:56:13.075Z,1.00
2018-07-27T18:58:42.223Z,1.00
2018-07-27T19:01:11.393Z,1.00
2018-07-27T19:03:40.575Z,1.00
2018-07-27T19:06:09.749Z,1.00
2018-07-27T19:11:07.900Z,99.90
2018-07-27T19:13:37.238Z,99.90
2018-07-27T19:16:07.045Z,78.20
2018-07-27T19:23:34.207Z,81.90
2018-07-27T19:26:03.369Z,82.20
2018-07-27T19:28:32.550Z,82.20
2018-07-27T19:31:01.768Z,83.20
2018-07-27T19:33:30.956Z,83.30
2018-07-27T19:36:00.137Z,84.60
2018-07-27T19:38:29.314Z,84.70
2018-07-27T19:40:58.505Z,85.30
2018-07-27T19:43:27.681Z,86.40
2018-07-27T19:45:56.874Z,87.10
2018-07-27T19:48:26.142Z,88.80
2018-07-27T19:50:56.268Z,89.60
2018-07-27T19:53:25.780Z,90.00
2018-07-27T19:55:54.977Z,90.20
2018-07-27T19:58:24.145Z,90.40
2018-07-27T20:00:53.338Z,91.00
2018-07-27T20:03:22.596Z,91.20
2018-07-27T20:05:51.797Z,91.80
2018-07-27T20:08:21.085Z,91.80
2018-07-27T20:10:50.267Z,91.80
2018-07-27T20:13:19.643Z,91.80
2018-07-27T20:15:48.860Z,93.00
2018-07-27T20:18:18.078Z,92.60
2018-07-27T20:20:47.289Z,92.80
2018-07-27T20:23:16.530Z,92.70
2018-07-27T20:25:45.748Z,93.20
2018-07-27T20:28:14.974Z,93.50
2018-07-27T20:30:44.166Z,94.10
2018-07-27T20:33:13.498Z,94.10
2018-07-27T20:35:42.771Z,94.40
2018-07-27T20:38:11.963Z,94.80
2018-07-27T20:40:41.390Z,94.80
2018-07-27T20:43:10.600Z,94.40
2018-07-27T20:50:37.967Z,95.40
2018-07-27T20:53:07.231Z,94.70
2018-07-27T20:55:36.487Z,95.10
2018-07-27T20:58:05.899Z,95.20
2018-07-27T21:00:35.094Z,95.30
2018-07-27T21:03:04.283Z,95.70
2018-07-27T21:05:33.568Z,95.90
2018-07-27T21:08:02.863Z,96.60
2018-07-27T21:10:32.159Z,96.60
2018-07-27T21:13:01.806Z,96.40
2018-07-27T21:15:31.047Z,96.30
2018-07-27T21:18:00.476Z,96.80
2018-07-27T21:20:29.707Z,96.90
2018-07-27T21:22:58.958Z,97.40
2018-07-27T21:25:28.124Z,97.40
2018-07-27T21:27:57.463Z,97.50
2018-07-27T21:30:26.740Z,98.60
2018-07-27T21:32:55.922Z,98.60
2018-07-27T21:35:25.153Z,99.20
2018-07-27T21:37:54.412Z,98.50
2018-07-27T21:40:23.693Z,98.50
2018-07-27T21:42:52.954Z,98.40
2018-07-27T21:45:22.162Z,98.50
2018-07-27T21:47:51.586Z,98.90
2018-07-27T21:52:49.884Z,99.60
2018-07-27T21:55:19.599Z,99.60
2018-07-27T21:57:48.855Z,99.90
2018-07-27T22:00:17.998Z,99.90
2018-07-27T22:05:16.116Z,99.90
2018-07-27T22:07:45.286Z,99.90
2018-07-27T22:10:14.462Z,99.90
2018-07-27T22:12:43.645Z,99.90
2018-07-27T22:15:16.888Z,99.90
2018-07-27T22:17:46.053Z,99.90
2018-07-27T22:20:15.225Z,99.90
2018-07-27T22:22:44.392Z,99.90
2018-07-27T22:25:13.557Z,99.90
2018-07-27T22:27:43.064Z,99.90
2018-07-27T22:30:12.679Z,99.90
2018-07-27T22:32:41.829Z,99.90
2018-07-27T22:35:11.009Z,99.90
2018-07-27T22:37:40.905Z,99.90
2018-07-27T22:40:11.476Z,99.90
2018-07-27T22:42:40.688Z,99.90
2018-07-27T22:45:10.794Z,99.90
2018-07-27T22:50:08.944Z,99.90
2018-07-27T22:52:38.156Z,99.90
2018-07-27T22:55:09.940Z,99.90
2018-07-27T23:00:12.676Z,99.90
2018-07-27T23:02:42.252Z,99.90
2018-07-27T23:05:12.164Z,99.90
2018-07-27T23:10:11.172Z,99.90
2018-07-27T23:12:40.777Z,99.90
2018-07-27T23:17:40.619Z,99.90
2018-07-27T23:20:12.799Z,99.90
2018-07-27T23:22:42.587Z,99.90
2018-07-27T23:25:11.762Z,99.90
2018-07-27T23:27:40.928Z,99.90
2018-07-27T23:30:12.227Z,99.90
2018-07-27T23:32:41.529Z,99.90
2018-07-27T23:35:10.696Z,99.90
2018-07-27T23:37:39.876Z,99.90
2018-07-27T23:40:10.036Z,99.90
2018-07-27T23:42:39.216Z,99.90
2018-07-27T23:45:09.488Z,99.90
2018-07-27T23:47:38.701Z,99.90
2018-07-27T23:50:08.255Z,99.90
2018-07-27T23:52:37.429Z,99.90
2018-07-27T23:55:06.764Z,99.90
